Time;durP1;ratioP1;P1;durP2;ratioP2;P2;SDS_P1;SDS_P2;PMS_P1;PMS_P2;Temp;Humidity;BMP_temperature;BMP_pressure;BME280_temperature;BME280_humidity;BME280_pressure;Samples;Min_cycle;Max_cycle;Signal;HPM_P1;HPM_P2
2021/10/06 09:52:39;;;;;;;4.27;3.87;;;15.10;98.30;;;;;;5253711;22;20400;-87
2021/10/06 09:55:00;;;;;;;4.20;3.67;;;15.10;98.30;;;;;;5244078;22;20429;-87
2021/10/06 10:51:10;;;;;;;4.43;3.53;;;14.80;98.30;;;;;;4856908;24;20485;-87
2021/10/06 10:57:25;;;;;;;3.80;3.40;;;14.80;98.30;;;;;;4940464;23;20505;-87
2021/10/06 13:08:11;;;;;;;4.77;2.90;;;15.20;98.30;;;;;;5230186;22;20409;31
2021/10/06 13:10:36;;;;;;;4.80;3.13;;;15.20;98.30;;;;;;5189866;22;20430;-83
2021/10/06 13:13:01;;;;;;;8.57;3.33;;;15.20;98.30;;;;;;5200028;22;21124;-83
2021/10/06 13:30:34;;;;;;;7.60;3.13;;;15.30;98.30;;;;;;5089258;23;20465;-86
2021/10/06 13:32:53;;;;;;;2.90;2.60;;;15.20;98.30;;;;;;5197968;22;20461;-85
2021/10/06 13:35:25;;;;;;;7.40;3.07;;;15.30;98.30;;;;;;5167602;22;20427;-85
2021/10/06 13:48:49;;;;;;;4.43;2.70;;;16.40;98.30;;;;;;5198049;22;20449;-83
2021/10/06 13:50:55;;;;;;;3.10;2.50;;;17.00;98.30;;;;;;5199165;22;20418;-83
2021/10/06 13:52:58;;;;;;;5.87;2.60;;;18.00;98.30;;;;;;5198839;22;20429;-83
2021/10/06 13:55:01;;;;;;;2.80;2.60;;;18.80;97.00;;;;;;5199282;22;20418;-83
2021/10/06 13:57:06;;;;;;;3.20;2.50;;;19.10;96.80;;;;;;5191438;22;20772;-83
2021/10/06 13:59:10;;;;;;;3.90;2.43;;;18.80;95.80;;;;;;5200217;22;20450;-83
2021/10/06 14:01:15;;;;;;;2.60;2.40;;;19.50;93.90;;;;;;5199291;22;20458;-83
2021/10/06 14:08:30;;;;;;;5.53;2.43;;;20.40;89.80;;;;;;5190600;22;20794;-83
2021/10/06 14:10:53;;;;;;;4.50;2.40;;;20.20;89.00;;;;;;5199536;22;20453;-83
2021/10/06 14:34:11;;;;;;;4.03;2.50;;;18.30;92.60;;;;;;5196959;22;20419;-83
2021/10/06 15:02:46;;;;;;;2.50;2.30;;;16.10;98.30;;;;;;4892170;24;20927;-83
2021/10/06 15:08:23;;;;;;;3.10;2.13;;;17.80;95.70;;;;;;5108317;23;20449;-83
2021/10/06 15:30:57;;;;;;;4.23;2.40;;;15.50;98.30;;;;;;5103530;23;20421;-83
2021/10/06 15:36:08;;;;;;;3.33;2.90;;;15.30;98.30;;;;;;5113940;23;20509;-83
2021/10/06 15:38:40;;;;;;;4.03;2.50;;;15.20;98.30;;;;;;5104875;23;20483;-84
2021/10/06 16:00:27;;;;;;;3.40;2.73;;;15.50;98.30;;;;;;5097502;23;20426;-83
2021/10/06 16:02:30;;;;;;;3.23;2.77;;;15.80;98.30;;;;;;5097640;23;20431;-83
2021/10/06 16:04:33;;;;;;;3.33;2.80;;;16.00;98.30;;;;;;5097940;23;20419;-85
2021/10/06 16:06:40;;;;;;;5.20;3.60;;;16.00;98.30;;;;;;5090890;23;20446;-86
2021/10/06 16:08:43;;;;;;;7.00;4.43;;;15.90;98.30;;;;;;5097198;23;20455;-84
2021/10/06 16:10:49;;;;;;;8.63;5.80;;;15.80;98.30;;;;;;5089092;23;20466;-85
2021/10/06 16:12:52;;;;;;;6.87;4.53;;;15.70;98.30;;;;;;5097365;23;20509;-85
2021/10/06 16:14:56;;;;;;;9.30;5.07;;;15.60;98.30;;;;;;5089355;23;20779;-85
2021/10/06 16:17:00;;;;;;;8.07;5.60;;;15.50;98.30;;;;;;5089161;23;21036;-83
2021/10/06 16:19:05;;;;;;;9.40;6.70;;;15.40;98.30;;;;;;5089140;23;20458;-83
2021/10/06 16:21:09;;;;;;;10.17;7.53;;;15.20;98.30;;;;;;5108252;22;20433;-82
2021/10/06 16:23:12;;;;;;;5.60;4.50;;;15.10;98.30;;;;;;5192501;22;20426;-82
2021/10/06 16:25:16;;;;;;;6.33;4.30;;;15.10;98.30;;;;;;5201155;22;20933;-83
2021/10/06 16:27:19;;;;;;;4.60;3.60;;;15.10;98.30;;;;;;5192524;22;20454;-81
2021/10/06 16:29:21;;;;;;;4.17;3.47;;;15.10;98.30;;;;;;5192853;22;20443;-82
2021/10/06 16:31:25;;;;;;;4.13;2.67;;;15.00;98.30;;;;;;5192153;22;20803;-83
2021/10/06 16:33:29;;;;;;;3.53;3.20;;;14.90;98.30;;;;;;5192576;22;20911;-83
2021/10/06 16:35:32;;;;;;;3.87;3.00;;;14.90;98.30;;;;;;5201369;22;20419;-82
2021/10/06 16:37:36;;;;;;;3.70;2.57;;;14.80;98.30;;;;;;5192149;22;20747;-82
2021/10/06 16:39:40;;;;;;;4.90;3.53;;;14.80;98.30;;;;;;5192547;22;20480;-82
2021/10/06 16:41:44;;;;;;;4.00;3.60;;;14.70;98.30;;;;;;5192035;22;20423;-82
2021/10/06 16:43:48;;;;;;;3.90;2.70;;;14.60;98.30;;;;;;5193494;22;20426;-83
2021/10/06 16:46:04;;;;;;;5.20;2.60;;;14.50;98.30;;;;;;5191423;22;20421;-82
2021/10/06 16:48:10;;;;;;;3.67;2.80;;;14.50;98.30;;;;;;5201519;22;20434;-81
2021/10/06 16:50:15;;;;;;;3.23;2.53;;;14.40;98.30;;;;;;5193095;22;20461;-82
2021/10/06 16:52:25;;;;;;;2.63;2.43;;;14.30;98.30;;;;;;5193722;22;20731;-82
2021/10/06 16:54:28;;;;;;;3.93;2.83;;;14.20;98.30;;;;;;5192275;22;20422;-81
2021/10/06 16:56:31;;;;;;;2.60;2.40;;;14.20;98.30;;;;;;5191044;22;20430;-82
2021/10/06 16:58:34;;;;;;;4.27;2.70;;;14.20;98.30;;;;;;5189733;22;20743;-80
2021/10/06 17:00:37;;;;;;;3.83;2.67;;;14.10;98.30;;;;;;5190758;22;20427;-84
2021/10/06 17:02:40;;;;;;;3.63;3.17;;;14.10;98.30;;;;;;5190727;22;20431;-84
2021/10/06 17:04:44;;;;;;;3.53;2.70;;;14.10;98.30;;;;;;5191232;22;20431;-84
2021/10/06 17:06:48;;;;;;;4.03;3.10;;;14.00;98.30;;;;;;5190053;22;21138;-83
2021/10/06 17:08:54;;;;;;;5.10;4.00;;;13.90;98.30;;;;;;5189690;22;20527;-83
2021/10/06 17:10:58;;;;;;;3.60;2.90;;;14.00;98.30;;;;;;5191513;22;20435;-82
2021/10/06 17:13:01;;;;;;;2.87;2.60;;;13.90;98.30;;;;;;5190562;22;20518;-83
2021/10/06 17:15:05;;;;;;;3.70;2.70;;;13.90;98.30;;;;;;5192022;22;20832;-83
2021/10/06 17:17:08;;;;;;;5.03;2.87;;;13.90;98.30;;;;;;5191330;22;20427;-82
2021/10/06 17:19:11;;;;;;;3.57;3.27;;;13.80;98.30;;;;;;5191581;22;20455;-82
2021/10/06 17:21:32;;;;;;;4.33;3.93;;;13.80;98.30;;;;;;5190732;22;20480;-82
2021/10/06 17:23:38;;;;;;;4.30;3.90;;;13.80;98.30;;;;;;5191802;22;20435;-82
2021/10/06 17:25:41;;;;;;;5.33;3.67;;;13.80;98.30;;;;;;5191949;22;20422;-82
2021/10/06 17:27:45;;;;;;;4.27;3.47;;;13.80;98.30;;;;;;5191844;22;20442;-81
2021/10/06 17:29:48;;;;;;;3.93;3.20;;;13.80;98.30;;;;;;5191701;22;20434;-82
2021/10/06 17:31:51;;;;;;;3.27;2.97;;;13.70;98.30;;;;;;5191260;22;20813;-82
2021/10/06 17:33:54;;;;;;;4.80;3.00;;;13.70;98.30;;;;;;5185678;22;20454;-82
2021/10/06 17:35:59;;;;;;;3.17;2.87;;;13.70;98.30;;;;;;5191168;22;20801;-82
2021/10/06 17:38:02;;;;;;;4.00;3.03;;;13.70;98.30;;;;;;5201811;22;20462;-82
2021/10/06 17:40:10;;;;;;;4.20;3.50;;;13.60;98.30;;;;;;5202716;22;20525;-82
2021/10/06 17:42:13;;;;;;;3.50;3.20;;;13.70;98.30;;;;;;5192906;22;20415;-81
2021/10/06 17:44:16;;;;;;;5.20;3.60;;;13.70;98.30;;;;;;5193452;22;20427;-82
2021/10/06 17:46:19;;;;;;;3.70;3.30;;;13.60;98.30;;;;;;5193834;22;20427;-82
2021/10/06 17:48:22;;;;;;;4.10;3.80;;;13.60;98.30;;;;;;5192643;22;20512;-82
2021/10/06 17:50:27;;;;;;;3.80;3.50;;;13.60;98.30;;;;;;5192170;22;20427;-81
2021/10/06 17:52:30;;;;;;;4.00;3.57;;;13.60;98.30;;;;;;5190772;22;21069;-82
2021/10/06 17:54:33;;;;;;;5.23;4.07;;;13.60;98.30;;;;;;5192645;22;20737;-82
2021/10/06 17:56:37;;;;;;;5.60;3.70;;;13.60;98.30;;;;;;5192708;22;20427;-83
2021/10/06 17:59:00;;;;;;;4.60;4.10;;;13.70;98.30;;;;;;5192040;22;20442;-81
2021/10/06 18:01:04;;;;;;;4.60;3.90;;;13.70;98.30;;;;;;5192159;22;20427;-82
2021/10/06 18:03:07;;;;;;;6.53;3.93;;;13.60;98.30;;;;;;5192349;22;20506;-82
2021/10/06 18:05:10;;;;;;;4.67;3.90;;;13.60;98.30;;;;;;5191890;22;20427;-82
2021/10/06 18:07:13;;;;;;;4.87;3.73;;;13.70;98.30;;;;;;5191738;22;20461;-82
2021/10/06 18:09:16;;;;;;;3.90;3.60;;;13.60;98.30;;;;;;5191507;22;20901;-83
2021/10/06 18:11:19;;;;;;;4.97;3.77;;;13.60;98.30;;;;;;5203505;22;20494;-82
2021/10/06 18:13:26;;;;;;;3.80;3.40;;;13.60;98.30;;;;;;5194253;22;20505;-83
2021/10/06 18:15:30;;;;;;;4.47;3.40;;;13.60;98.30;;;;;;5194761;22;20415;-82
2021/10/06 18:17:34;;;;;;;4.47;4.00;;;13.50;98.30;;;;;;5193896;22;20423;-83
2021/10/06 18:19:37;;;;;;;4.23;3.83;;;13.50;98.30;;;;;;5193844;22;20457;-82
2021/10/06 18:21:41;;;;;;;5.97;5.47;;;13.50;98.30;;;;;;5202261;22;20433;-82
2021/10/06 18:23:44;;;;;;;4.83;4.33;;;13.60;98.30;;;;;;5194710;22;20513;-82
2021/10/06 18:25:47;;;;;;;4.33;4.00;;;13.60;98.30;;;;;;5203297;22;20426;-82
2021/10/06 18:27:51;;;;;;;4.70;4.27;;;13.60;98.30;;;;;;5194562;22;20907;-82
2021/10/06 18:29:55;;;;;;;3.60;3.30;;;13.50;98.30;;;;;;5194346;22;20473;-81
2021/10/06 18:32:00;;;;;;;4.10;3.70;;;13.50;98.30;;;;;;5193525;22;20473;-81
2021/10/06 18:34:05;;;;;;;3.60;3.30;;;13.50;98.30;;;;;;5202633;22;20415;-81
2021/10/06 18:36:09;;;;;;;3.83;3.53;;;13.50;98.30;;;;;;5194945;22;20427;-81
2021/10/06 18:38:12;;;;;;;3.67;3.37;;;13.50;98.30;;;;;;5203431;22;20449;-83
2021/10/06 18:40:16;;;;;;;3.60;3.30;;;13.50;98.30;;;;;;5203065;22;20434;-80
2021/10/06 18:42:19;;;;;;;5.27;3.77;;;13.50;98.30;;;;;;5193903;22;20423;-81
2021/10/06 18:44:22;;;;;;;4.70;4.30;;;13.50;98.30;;;;;;5194237;22;20729;-81
2021/10/06 18:46:26;;;;;;;7.03;6.13;;;13.50;98.30;;;;;;5201883;22;20418;-81
2021/10/06 18:48:30;;;;;;;5.10;4.57;;;13.50;98.30;;;;;;5202270;22;20435;-82
2021/10/06 18:50:35;;;;;;;5.40;4.90;;;13.50;98.30;;;;;;5201583;22;20453;-83
2021/10/06 18:52:44;;;;;;;4.83;4.30;;;13.50;98.30;;;;;;5203169;22;20422;-82
2021/10/06 18:54:50;;;;;;;6.07;4.20;;;13.50;98.30;;;;;;5201953;22;20422;-81
2021/10/06 18:56:54;;;;;;;5.10;4.23;;;13.40;98.30;;;;;;5203354;22;20426;-81
2021/10/06 18:58:57;;;;;;;4.73;4.30;;;13.30;98.30;;;;;;5193631;22;20457;-81
2021/10/06 19:01:00;;;;;;;5.33;4.83;;;13.20;98.30;;;;;;5201557;22;20442;-81
2021/10/06 19:03:05;;;;;;;5.60;4.73;;;13.20;98.30;;;;;;5193452;22;20730;-81
2021/10/06 19:05:10;;;;;;;7.20;5.07;;;13.20;98.30;;;;;;5203303;22;20422;-81
2021/10/06 19:07:13;;;;;;;7.50;4.40;;;13.30;98.30;;;;;;5194477;22;20832;-81
2021/10/06 19:09:16;;;;;;;5.57;4.97;;;13.20;98.30;;;;;;5194009;22;20518;-81
2021/10/06 19:11:19;;;;;;;6.20;4.70;;;13.20;98.30;;;;;;5202828;22;20429;-81
2021/10/06 19:13:22;;;;;;;7.90;5.87;;;13.10;98.30;;;;;;5194086;22;20430;-81
2021/10/06 19:15:25;;;;;;;6.87;5.30;;;13.10;98.30;;;;;;5193854;22;20439;-81
2021/10/06 19:17:29;;;;;;;7.80;6.63;;;13.10;98.30;;;;;;5193748;22;20441;-81
2021/10/06 19:19:37;;;;;;;9.03;7.23;;;13.10;98.30;;;;;;5202312;22;20498;-81
2021/10/06 19:21:40;;;;;;;6.90;6.27;;;13.10;98.30;;;;;;5202011;22;20966;-81
2021/10/06 19:23:44;;;;;;;9.40;8.50;;;13.10;98.30;;;;;;5194112;22;20797;-81
2021/10/06 19:25:48;;;;;;;7.43;6.60;;;13.10;98.30;;;;;;5202237;22;20421;-81
2021/10/06 19:27:51;;;;;;;7.27;6.47;;;13.20;98.30;;;;;;5202139;22;20523;-81
2021/10/06 19:29:54;;;;;;;8.50;6.73;;;13.10;98.30;;;;;;5203521;22;20797;-81
2021/10/06 19:31:57;;;;;;;7.90;7.20;;;13.10;98.30;;;;;;5204627;22;20509;-81
2021/10/06 19:34:00;;;;;;;5.87;5.27;;;13.10;98.30;;;;;;5204698;22;20415;-81
2021/10/06 19:36:13;;;;;;;5.07;4.67;;;13.10;98.30;;;;;;5195397;22;20439;-81
2021/10/06 19:38:17;;;;;;;6.90;4.00;;;13.10;98.30;;;;;;5203913;22;20445;-81
2021/10/06 19:40:20;;;;;;;7.10;5.30;;;13.10;98.30;;;;;;5203904;22;20489;-81
2021/10/06 19:42:23;;;;;;;6.03;4.93;;;13.10;98.30;;;;;;5204329;22;20415;-81
2021/10/06 19:44:26;;;;;;;6.30;5.10;;;13.10;98.30;;;;;;5204928;22;20511;-81
2021/10/06 19:46:29;;;;;;;5.23;4.73;;;13.10;98.30;;;;;;5196205;22;20430;-81
2021/10/06 19:48:32;;;;;;;5.77;4.70;;;13.10;98.30;;;;;;5195621;22;20768;-81
2021/10/06 19:50:35;;;;;;;5.30;4.37;;;13.10;98.30;;;;;;5195466;22;20482;-81
2021/10/06 19:52:41;;;;;;;6.30;5.70;;;13.10;98.30;;;;;;5194565;22;20870;-81
2021/10/06 19:54:48;;;;;;;6.73;6.03;;;13.10;98.30;;;;;;5201567;22;20442;-81
2021/10/06 19:56:51;;;;;;;8.60;6.17;;;13.00;98.30;;;;;;5201859;22;20422;-81
2021/10/06 19:58:54;;;;;;;9.10;6.20;;;13.10;98.30;;;;;;5195230;22;20444;-81
2021/10/06 20:00:57;;;;;;;7.47;6.00;;;13.00;98.30;;;;;;5194074;22;20446;-81
2021/10/06 20:03:01;;;;;;;8.80;5.90;;;13.00;98.30;;;;;;5203051;22;20457;-85
2021/10/06 20:58:05;;;;;;;5.73;3.70;;;12.50;98.30;;;;;;5215978;22;20463;-85
2021/10/06 21:00:10;;;;;;;4.93;4.43;;;12.50;98.30;;;;;;5217699;22;20516;-84
2021/10/06 21:02:16;;;;;;;7.10;3.97;;;12.50;98.30;;;;;;5225485;22;20456;-84
2021/10/06 21:04:20;;;;;;;5.23;4.40;;;12.40;98.30;;;;;;5225785;22;20472;-84
2021/10/06 21:06:25;;;;;;;5.63;4.50;;;12.30;98.30;;;;;;5225248;22;20500;-84
2021/10/06 21:08:28;;;;;;;4.53;4.13;;;12.30;98.30;;;;;;5228712;22;20509;-84
2021/10/06 21:10:37;;;;;;;5.97;4.30;;;12.20;98.30;;;;;;5226230;22;20414;-82
2021/10/06 21:12:41;;;;;;;6.83;4.47;;;12.20;98.30;;;;;;5217742;22;20938;-84
2021/10/06 21:14:44;;;;;;;5.43;4.10;;;12.20;98.30;;;;;;5224813;22;21054;-83
2021/10/06 21:16:47;;;;;;;6.77;4.70;;;12.20;98.30;;;;;;5226503;22;20214;-83
2021/10/06 21:18:50;;;;;;;7.80;4.40;;;12.20;98.30;;;;;;5226002;22;20475;-84
2021/10/06 21:20:54;;;;;;;5.37;4.37;;;12.10;98.30;;;;;;5218241;22;20804;-84
2021/10/06 21:22:57;;;;;;;4.70;3.53;;;12.10;98.30;;;;;;5226229;22;20442;-84
2021/10/06 21:25:00;;;;;;;4.73;4.20;;;12.00;98.30;;;;;;5225873;22;20457;-83
2021/10/06 21:27:05;;;;;;;5.90;4.80;;;12.00;98.30;;;;;;5225524;22;20428;-84
2021/10/06 21:29:08;;;;;;;7.23;4.63;;;11.90;98.30;;;;;;5225649;22;20460;-83
2021/10/06 21:31:11;;;;;;;7.93;4.50;;;11.90;98.30;;;;;;5217826;22;20504;-83
2021/10/06 21:33:15;;;;;;;5.63;4.47;;;12.00;98.30;;;;;;5226878;22;20433;-83
2021/10/06 21:35:18;;;;;;;4.93;4.47;;;12.00;98.30;;;;;;5230732;22;20568;-83
2021/10/06 21:37:22;;;;;;;5.87;4.40;;;12.00;98.30;;;;;;5229408;22;20445;-83
2021/10/06 21:39:25;;;;;;;4.87;3.70;;;11.90;98.30;;;;;;5230200;22;20489;-84
2021/10/06 21:41:28;;;;;;;7.20;4.67;;;11.90;98.30;;;;;;5219012;22;20452;-83
2021/10/06 21:43:32;;;;;;;6.70;4.40;;;11.90;98.30;;;;;;5223790;22;20448;-84
2021/10/06 21:45:36;;;;;;;5.90;4.43;;;11.90;98.30;;;;;;5231167;22;20474;-83
2021/10/06 21:47:39;;;;;;;5.33;4.83;;;11.90;98.30;;;;;;5230986;22;20508;-83
2021/10/06 21:49:42;;;;;;;5.37;4.50;;;11.80;98.30;;;;;;5225901;22;20426;-84
2021/10/06 21:51:45;;;;;;;8.07;4.40;;;11.80;98.30;;;;;;5225393;22;20417;-84
2021/10/06 21:53:48;;;;;;;4.70;4.20;;;11.60;98.30;;;;;;5225492;22;20445;-84
2021/10/06 21:55:52;;;;;;;5.53;4.57;;;11.60;98.30;;;;;;5217093;22;20425;-84
2021/10/06 21:57:56;;;;;;;4.53;4.13;;;11.60;98.30;;;;;;5225598;22;20509;-83
2021/10/06 22:00:01;;;;;;;4.10;3.70;;;11.60;98.30;;;;;;5225526;22;20421;-84
2021/10/06 22:02:04;;;;;;;5.77;4.50;;;11.60;98.30;;;;;;5216858;22;20818;-84
2021/10/06 22:04:07;;;;;;;4.40;4.00;;;11.50;98.30;;;;;;5216892;22;20544;-83
2021/10/06 22:06:11;;;;;;;5.20;4.33;;;11.50;98.30;;;;;;5217171;22;20517;-83
2021/10/06 22:08:14;;;;;;;6.20;4.23;;;11.50;98.30;;;;;;5217153;22;20436;-83
2021/10/06 22:10:18;;;;;;;5.20;4.33;;;11.50;98.30;;;;;;5225536;22;20811;-83
2021/10/06 22:12:21;;;;;;;4.83;4.37;;;11.50;98.30;;;;;;5216888;22;20414;-83
2021/10/06 22:14:25;;;;;;;4.70;4.10;;;11.50;98.30;;;;;;5225255;22;20508;-83
2021/10/06 22:16:29;;;;;;;5.93;4.23;;;11.50;98.30;;;;;;5225746;22;20426;-83
2021/10/06 22:18:33;;;;;;;4.57;4.07;;;11.40;98.30;;;;;;5225437;22;20924;-84
2021/10/06 22:20:36;;;;;;;5.03;4.47;;;11.40;98.30;;;;;;5225485;22;20927;-82
2021/10/06 22:22:39;;;;;;;5.30;3.97;;;11.40;98.30;;;;;;5224697;22;20442;-84
2021/10/06 22:24:42;;;;;;;6.20;4.37;;;11.40;98.30;;;;;;5225892;22;20418;-83
2021/10/06 22:26:47;;;;;;;6.43;4.33;;;11.40;98.30;;;;;;5225903;22;20799;-83
2021/10/06 22:28:50;;;;;;;4.83;4.10;;;11.40;98.30;;;;;;5225712;22;20922;-83
2021/10/06 22:30:54;;;;;;;4.67;4.10;;;11.40;98.30;;;;;;5225583;22;20509;-83
2021/10/06 22:32:59;;;;;;;5.30;3.90;;;11.40;98.30;;;;;;5216833;22;20984;-84
2021/10/06 22:35:02;;;;;;;4.87;4.07;;;11.30;98.30;;;;;;5225333;22;20409;-84
2021/10/06 22:37:06;;;;;;;7.00;5.03;;;11.30;98.30;;;;;;5225231;22;20508;-83
2021/10/06 22:39:12;;;;;;;5.93;4.57;;;11.30;98.30;;;;;;5224602;22;20501;-83
2021/10/06 22:41:15;;;;;;;6.43;5.00;;;11.30;98.30;;;;;;5224763;22;20418;-83
2021/10/06 22:43:18;;;;;;;6.20;4.23;;;11.30;98.30;;;;;;5224563;22;20950;-83
2021/10/06 22:45:21;;;;;;;6.03;4.80;;;11.30;98.30;;;;;;5224987;22;20428;-83
2021/10/06 22:47:24;;;;;;;5.13;4.33;;;11.20;98.30;;;;;;5216439;22;20426;-83
2021/10/06 22:49:29;;;;;;;4.30;3.90;;;11.10;98.30;;;;;;5225113;22;20450;-83
2021/10/06 22:51:32;;;;;;;6.73;4.33;;;11.10;98.30;;;;;;5215794;22;20497;-84
2021/10/06 22:53:35;;;;;;;4.73;4.23;;;11.10;98.30;;;;;;5216287;22;20452;-83
2021/10/06 22:55:38;;;;;;;7.33;4.50;;;11.10;98.30;;;;;;5224988;22;20456;-83
2021/10/06 22:57:41;;;;;;;5.50;4.90;;;11.00;98.30;;;;;;5224974;22;20420;-84
2021/10/06 22:59:45;;;;;;;6.90;4.33;;;11.00;98.30;;;;;;5225015;22;20754;-84
2021/10/06 23:01:48;;;;;;;5.10;4.50;;;11.00;98.30;;;;;;5224355;22;20492;-83
2021/10/06 23:03:51;;;;;;;5.87;4.60;;;11.00;98.30;;;;;;5224560;22;20450;-84
2021/10/06 23:05:55;;;;;;;5.70;4.90;;;11.00;98.30;;;;;;5217879;22;20500;-84
2021/10/06 23:07:58;;;;;;;6.43;4.33;;;11.00;98.30;;;;;;5226679;22;20488;-84
2021/10/06 23:10:03;;;;;;;6.37;4.90;;;11.00;98.30;;;;;;5225788;22;20501;-84
2021/10/06 23:12:06;;;;;;;5.30;4.30;;;10.90;98.30;;;;;;5226150;22;20496;-84
2021/10/06 23:14:09;;;;;;;7.37;4.40;;;11.00;98.30;;;;;;5226175;22;20448;-84
2021/10/06 23:16:13;;;;;;;5.83;4.23;;;11.00;98.30;;;;;;5226281;22;20422;-84
2021/10/06 23:18:16;;;;;;;7.77;4.73;;;11.00;98.30;;;;;;5226185;22;20428;-83
2021/10/06 23:20:23;;;;;;;7.50;4.60;;;10.90;98.30;;;;;;5226184;22;20429;-83
2021/10/06 23:22:28;;;;;;;6.90;4.10;;;10.90;98.30;;;;;;5225836;22;20469;-84
2021/10/06 23:24:31;;;;;;;6.27;4.90;;;10.90;98.30;;;;;;5226527;22;20448;-83
2021/10/06 23:26:35;;;;;;;5.50;4.63;;;10.90;98.30;;;;;;5226232;22;20416;-83
2021/10/06 23:28:38;;;;;;;8.20;4.63;;;10.90;98.30;;;;;;5226560;22;20421;-83
2021/10/06 23:30:41;;;;;;;5.30;4.57;;;11.00;98.30;;;;;;5226780;22;20795;-83
2021/10/06 23:32:48;;;;;;;5.50;4.27;;;10.90;98.30;;;;;;5226042;22;20436;-82
2021/10/06 23:34:51;;;;;;;5.07;4.57;;;10.90;98.30;;;;;;5226308;22;20449;-84
2021/10/06 23:36:54;;;;;;;8.50;5.10;;;10.80;98.30;;;;;;5226634;22;20512;-83
2021/10/06 23:38:59;;;;;;;7.70;4.63;;;10.80;98.30;;;;;;5226155;22;20481;-84
2021/10/06 23:41:02;;;;;;;6.40;4.90;;;10.90;98.30;;;;;;5218102;22;20425;-83
2021/10/06 23:43:05;;;;;;;6.60;4.80;;;11.00;98.30;;;;;;5217428;22;20449;-84
2021/10/06 23:45:09;;;;;;;6.33;4.73;;;11.00;98.30;;;;;;5226163;22;21153;-83
2021/10/06 23:47:12;;;;;;;10.73;5.20;;;11.00;98.30;;;;;;5226200;22;20479;-83
2021/10/06 23:49:15;;;;;;;5.27;4.20;;;11.10;98.30;;;;;;5227255;22;20477;-83
2021/10/06 23:51:19;;;;;;;4.60;4.20;;;11.20;98.30;;;;;;5246730;22;20428;-83
2021/10/06 23:53:22;;;;;;;5.13;4.73;;;11.30;98.30;;;;;;5249046;22;20417;-83
2021/10/06 23:55:26;;;;;;;7.20;4.70;;;11.30;98.30;;;;;;5248807;22;20493;-83
2021/10/06 23:57:29;;;;;;;5.27;4.77;;;11.40;98.30;;;;;;5246843;22;20417;-83
2021/10/06 23:59:33;;;;;;;6.23;4.20;;;11.40;98.30;;;;;;5226406;22;20906;-84
